sensor_id;sensor_type;location;lat;lon;timestamp;P1;durP1;ratioP1;P2;durP2;ratioP2
64208;SDS011;50527;52.414;13.226;2023-04-25T00:01:29;2.13;;;0.40;;
64208;SDS011;50527;52.414;13.226;2023-04-25T00:03:54;0.85;;;0.30;;
64208;SDS011;50527;52.414;13.226;2023-04-25T00:06:20;2.17;;;0.35;;
64208;SDS011;50527;52.414;13.226;2023-04-25T00:08:45;1.65;;;0.30;;
64208;SDS011;50527;52.414;13.226;2023-04-25T00:11:11;2.58;;;0.30;;
64208;SDS011;50527;52.414;13.226;2023-04-25T00:13:36;1.55;;;0.50;;
64208;SDS011;50527;52.414;13.226;2023-04-25T00:16:01;1.10;;;0.30;;
64208;SDS011;50527;52.414;13.226;2023-04-25T00:18:27;2.50;;;0.43;;
64208;SDS011;50527;52.414;13.226;2023-04-25T00:20:54;1.73;;;0.30;;
64208;SDS011;50527;52.414;13.226;2023-04-25T00:23:20;3.03;;;0.50;;
64208;SDS011;50527;52.414;13.226;2023-04-25T00:25:47;1.95;;;0.47;;
64208;SDS011;50527;52.414;13.226;2023-04-25T00:28:13;2.35;;;0.50;;
64208;SDS011;50527;52.414;13.226;2023-04-25T00:30:40;1.30;;;0.40;;
64208;SDS011;50527;52.414;13.226;2023-04-25T00:33:06;2.78;;;0.60;;
64208;SDS011;50527;52.414;13.226;2023-04-25T00:35:32;3.30;;;0.63;;
64208;SDS011;50527;52.414;13.226;2023-04-25T00:37:58;1.30;;;0.40;;
64208;SDS011;50527;52.414;13.226;2023-04-25T00:40:23;2.28;;;0.60;;
64208;SDS011;50527;52.414;13.226;2023-04-25T00:42:49;2.72;;;0.60;;
64208;SDS011;50527;52.414;13.226;2023-04-25T00:45:17;3.78;;;0.70;;
64208;SDS011;50527;52.414;13.226;2023-04-25T00:47:43;4.15;;;0.60;;
64208;SDS011;50527;52.414;13.226;2023-04-25T00:50:18;3.70;;;0.73;;
64208;SDS011;50527;52.414;13.226;2023-04-25T00:52:43;3.28;;;0.45;;
64208;SDS011;50527;52.414;13.226;2023-04-25T00:55:10;2.67;;;0.63;;
64208;SDS011;50527;52.414;13.226;2023-04-25T00:57:37;2.00;;;0.65;;
64208;SDS011;50527;52.414;13.226;2023-04-25T01:00:03;3.55;;;0.90;;
64208;SDS011;50527;52.414;13.226;2023-04-25T01:02:31;1.33;;;0.50;;
64208;SDS011;50527;52.414;13.226;2023-04-25T01:04:58;4.10;;;0.73;;
64208;SDS011;50527;52.414;13.226;2023-04-25T01:07:23;1.95;;;0.40;;
64208;SDS011;50527;52.414;13.226;2023-04-25T01:09:51;3.47;;;0.70;;
64208;SDS011;50527;52.414;13.226;2023-04-25T01:12:17;3.80;;;0.60;;
64208;SDS011;50527;52.414;13.226;2023-04-25T01:14:42;2.20;;;0.52;;
64208;SDS011;50527;52.414;13.226;2023-04-25T01:17:08;1.55;;;0.45;;
64208;SDS011;50527;52.414;13.226;2023-04-25T01:19:34;5.05;;;0.50;;
64208;SDS011;50527;52.414;13.226;2023-04-25T01:22:00;2.67;;;0.60;;
64208;SDS011;50527;52.414;13.226;2023-04-25T01:24:26;1.52;;;0.50;;
64208;SDS011;50527;52.414;13.226;2023-04-25T01:26:51;3.25;;;0.47;;
64208;SDS011;50527;52.414;13.226;2023-04-25T01:29:19;2.00;;;0.60;;
64208;SDS011;50527;52.414;13.226;2023-04-25T01:31:45;2.58;;;0.60;;
64208;SDS011;50527;52.414;13.226;2023-04-25T01:34:11;2.08;;;0.57;;
64208;SDS011;50527;52.414;13.226;2023-04-25T01:36:37;2.00;;;0.63;;
64208;SDS011;50527;52.414;13.226;2023-04-25T01:39:03;7.03;;;0.95;;
64208;SDS011;50527;52.414;13.226;2023-04-25T01:41:28;5.72;;;0.70;;
64208;SDS011;50527;52.414;13.226;2023-04-25T01:43:54;1.80;;;0.80;;
64208;SDS011;50527;52.414;13.226;2023-04-25T01:46:20;1.48;;;0.65;;
64208;SDS011;50527;52.414;13.226;2023-04-25T01:48:46;6.90;;;0.93;;
64208;SDS011;50527;52.414;13.226;2023-04-25T01:51:12;3.67;;;0.70;;
64208;SDS011;50527;52.414;13.226;2023-04-25T01:53:38;1.30;;;0.50;;
64208;SDS011;50527;52.414;13.226;2023-04-25T01:56:04;3.78;;;0.60;;
64208;SDS011;50527;52.414;13.226;2023-04-25T01:58:30;3.65;;;0.57;;
64208;SDS011;50527;52.414;13.226;2023-04-25T02:00:55;4.70;;;1.00;;
64208;SDS011;50527;52.414;13.226;2023-04-25T02:03:21;2.97;;;0.50;;
64208;SDS011;50527;52.414;13.226;2023-04-25T02:05:46;4.78;;;0.80;;
64208;SDS011;50527;52.414;13.226;2023-04-25T02:08:12;2.95;;;0.82;;
64208;SDS011;50527;52.414;13.226;2023-04-25T02:10:37;2.30;;;0.70;;
64208;SDS011;50527;52.414;13.226;2023-04-25T02:13:03;6.72;;;0.85;;
64208;SDS011;50527;52.414;13.226;2023-04-25T02:15:30;3.60;;;0.80;;
64208;SDS011;50527;52.414;13.226;2023-04-25T02:17:56;4.93;;;0.90;;
64208;SDS011;50527;52.414;13.226;2023-04-25T02:20:21;3.22;;;0.70;;
64208;SDS011;50527;52.414;13.226;2023-04-25T02:22:48;9.43;;;0.93;;
64208;SDS011;50527;52.414;13.226;2023-04-25T02:25:14;2.83;;;0.70;;
64208;SDS011;50527;52.414;13.226;2023-04-25T02:27:40;3.45;;;0.95;;
64208;SDS011;50527;52.414;13.226;2023-04-25T02:30:06;4.32;;;0.82;;
64208;SDS011;50527;52.414;13.226;2023-04-25T02:32:32;3.63;;;0.70;;
64208;SDS011;50527;52.414;13.226;2023-04-25T02:34:59;4.00;;;0.75;;
64208;SDS011;50527;52.414;13.226;2023-04-25T02:37:31;4.53;;;0.88;;
64208;SDS011;50527;52.414;13.226;2023-04-25T02:39:57;3.40;;;0.77;;
64208;SDS011;50527;52.414;13.226;2023-04-25T02:42:22;2.75;;;0.73;;
64208;SDS011;50527;52.414;13.226;2023-04-25T02:44:48;5.25;;;0.60;;
64208;SDS011;50527;52.414;13.226;2023-04-25T02:47:13;4.72;;;0.90;;
64208;SDS011;50527;52.414;13.226;2023-04-25T02:49:39;3.83;;;0.90;;
64208;SDS011;50527;52.414;13.226;2023-04-25T02:52:04;2.20;;;0.90;;
64208;SDS011;50527;52.414;13.226;2023-04-25T02:54:30;3.25;;;0.80;;
64208;SDS011;50527;52.414;13.226;2023-04-25T02:56:55;4.97;;;1.10;;
64208;SDS011;50527;52.414;13.226;2023-04-25T02:59:21;1.98;;;0.80;;
64208;SDS011;50527;52.414;13.226;2023-04-25T03:01:46;4.03;;;0.80;;
64208;SDS011;50527;52.414;13.226;2023-04-25T03:04:12;5.65;;;0.90;;
64208;SDS011;50527;52.414;13.226;2023-04-25T03:06:37;3.55;;;0.82;;
64208;SDS011;50527;52.414;13.226;2023-04-25T03:09:03;6.10;;;0.80;;
64208;SDS011;50527;52.414;13.226;2023-04-25T03:11:28;6.07;;;1.25;;
64208;SDS011;50527;52.414;13.226;2023-04-25T03:13:54;1.85;;;0.63;;
64208;SDS011;50527;52.414;13.226;2023-04-25T03:16:20;8.02;;;0.98;;
64208;SDS011;50527;52.414;13.226;2023-04-25T03:18:46;4.15;;;0.90;;
64208;SDS011;50527;52.414;13.226;2023-04-25T03:21:11;3.60;;;0.90;;
64208;SDS011;50527;52.414;13.226;2023-04-25T03:23:37;3.55;;;0.68;;
64208;SDS011;50527;52.414;13.226;2023-04-25T03:26:02;3.10;;;0.70;;
64208;SDS011;50527;52.414;13.226;2023-04-25T03:28:28;4.80;;;0.90;;
64208;SDS011;50527;52.414;13.226;2023-04-25T03:30:53;4.80;;;0.80;;
64208;SDS011;50527;52.414;13.226;2023-04-25T03:33:19;4.97;;;0.80;;
64208;SDS011;50527;52.414;13.226;2023-04-25T03:35:44;8.55;;;1.05;;
64208;SDS011;50527;52.414;13.226;2023-04-25T03:38:10;5.95;;;1.00;;
64208;SDS011;50527;52.414;13.226;2023-04-25T03:40:36;3.63;;;0.93;;
64208;SDS011;50527;52.414;13.226;2023-04-25T03:43:01;2.30;;;0.80;;
64208;SDS011;50527;52.414;13.226;2023-04-25T03:45:27;2.42;;;0.70;;
64208;SDS011;50527;52.414;13.226;2023-04-25T03:47:52;6.15;;;0.93;;
64208;SDS011;50527;52.414;13.226;2023-04-25T03:50:17;2.58;;;0.85;;
64208;SDS011;50527;52.414;13.226;2023-04-25T03:52:43;3.25;;;0.90;;
64208;SDS011;50527;52.414;13.226;2023-04-25T03:55:09;6.07;;;1.35;;
64208;SDS011;50527;52.414;13.226;2023-04-25T03:57:34;5.40;;;1.10;;
64208;SDS011;50527;52.414;13.226;2023-04-25T04:00:00;1.98;;;0.80;;
64208;SDS011;50527;52.414;13.226;2023-04-25T04:02:26;2.13;;;1.00;;
64208;SDS011;50527;52.414;13.226;2023-04-25T04:04:51;4.68;;;0.98;;
64208;SDS011;50527;52.414;13.226;2023-04-25T04:07:17;5.78;;;1.45;;
64208;SDS011;50527;52.414;13.226;2023-04-25T04:09:42;5.00;;;1.13;;
64208;SDS011;50527;52.414;13.226;2023-04-25T04:12:08;3.08;;;0.80;;
64208;SDS011;50527;52.414;13.226;2023-04-25T04:14:33;3.42;;;0.73;;
64208;SDS011;50527;52.414;13.226;2023-04-25T04:16:58;3.95;;;1.05;;
64208;SDS011;50527;52.414;13.226;2023-04-25T04:19:25;4.45;;;1.08;;
64208;SDS011;50527;52.414;13.226;2023-04-25T04:21:51;7.90;;;1.10;;
64208;SDS011;50527;52.414;13.226;2023-04-25T04:24:16;2.75;;;0.90;;
64208;SDS011;50527;52.414;13.226;2023-04-25T04:26:42;3.42;;;0.90;;
64208;SDS011;50527;52.414;13.226;2023-04-25T04:29:09;4.25;;;0.95;;
64208;SDS011;50527;52.414;13.226;2023-04-25T04:31:35;5.30;;;1.20;;
64208;SDS011;50527;52.414;13.226;2023-04-25T04:34:01;4.65;;;0.90;;
64208;SDS011;50527;52.414;13.226;2023-04-25T04:36:28;6.28;;;1.17;;
64208;SDS011;50527;52.414;13.226;2023-04-25T04:38:54;4.25;;;0.90;;
64208;SDS011;50527;52.414;13.226;2023-04-25T04:41:21;8.70;;;1.15;;
64208;SDS011;50527;52.414;13.226;2023-04-25T04:43:47;3.50;;;0.93;;
64208;SDS011;50527;52.414;13.226;2023-04-25T04:46:12;5.32;;;1.10;;
64208;SDS011;50527;52.414;13.226;2023-04-25T04:48:38;3.17;;;1.02;;
64208;SDS011;50527;52.414;13.226;2023-04-25T04:51:05;2.47;;;1.02;;
64208;SDS011;50527;52.414;13.226;2023-04-25T04:53:30;3.97;;;0.98;;
64208;SDS011;50527;52.414;13.226;2023-04-25T04:55:56;5.18;;;1.20;;
64208;SDS011;50527;52.414;13.226;2023-04-25T04:58:21;5.32;;;1.00;;
64208;SDS011;50527;52.414;13.226;2023-04-25T05:00:47;4.80;;;0.90;;
64208;SDS011;50527;52.414;13.226;2023-04-25T05:03:13;4.28;;;1.10;;
64208;SDS011;50527;52.414;13.226;2023-04-25T05:05:38;2.53;;;1.00;;
64208;SDS011;50527;52.414;13.226;2023-04-25T05:08:05;2.33;;;0.98;;
64208;SDS011;50527;52.414;13.226;2023-04-25T05:10:31;3.05;;;0.88;;
64208;SDS011;50527;52.414;13.226;2023-04-25T05:12:56;8.10;;;1.23;;
64208;SDS011;50527;52.414;13.226;2023-04-25T05:15:22;6.85;;;1.08;;
64208;SDS011;50527;52.414;13.226;2023-04-25T05:17:47;9.73;;;1.13;;
64208;SDS011;50527;52.414;13.226;2023-04-25T05:20:13;6.43;;;1.13;;
64208;SDS011;50527;52.414;13.226;2023-04-25T05:22:39;1.70;;;1.00;;
64208;SDS011;50527;52.414;13.226;2023-04-25T05:25:06;3.42;;;1.10;;
64208;SDS011;50527;52.414;13.226;2023-04-25T05:27:32;6.10;;;0.90;;
64208;SDS011;50527;52.414;13.226;2023-04-25T05:29:58;5.15;;;1.00;;
64208;SDS011;50527;52.414;13.226;2023-04-25T05:32:23;4.60;;;1.08;;
64208;SDS011;50527;52.414;13.226;2023-04-25T05:34:49;6.88;;;1.25;;
64208;SDS011;50527;52.414;13.226;2023-04-25T05:37:16;5.80;;;0.93;;
64208;SDS011;50527;52.414;13.226;2023-04-25T05:39:42;3.63;;;1.05;;
64208;SDS011;50527;52.414;13.226;2023-04-25T05:42:07;4.25;;;1.20;;
64208;SDS011;50527;52.414;13.226;2023-04-25T05:44:32;4.10;;;1.33;;
64208;SDS011;50527;52.414;13.226;2023-04-25T05:46:58;5.95;;;1.10;;
64208;SDS011;50527;52.414;13.226;2023-04-25T05:49:24;3.35;;;1.13;;
64208;SDS011;50527;52.414;13.226;2023-04-25T05:51:50;7.05;;;1.00;;
64208;SDS011;50527;52.414;13.226;2023-04-25T05:54:15;4.75;;;1.05;;
64208;SDS011;50527;52.414;13.226;2023-04-25T05:56:40;6.00;;;1.27;;
64208;SDS011;50527;52.414;13.226;2023-04-25T05:59:06;10.00;;;1.60;;
64208;SDS011;50527;52.414;13.226;2023-04-25T06:01:31;3.65;;;1.30;;
64208;SDS011;50527;52.414;13.226;2023-04-25T06:03:57;1.98;;;0.75;;
64208;SDS011;50527;52.414;13.226;2023-04-25T06:06:22;7.47;;;1.02;;
64208;SDS011;50527;52.414;13.226;2023-04-25T06:08:48;5.90;;;1.20;;
64208;SDS011;50527;52.414;13.226;2023-04-25T06:11:13;5.35;;;1.13;;
64208;SDS011;50527;52.414;13.226;2023-04-25T06:13:39;3.30;;;1.20;;
64208;SDS011;50527;52.414;13.226;2023-04-25T06:16:04;4.90;;;1.20;;
64208;SDS011;50527;52.414;13.226;2023-04-25T06:18:30;4.22;;;0.93;;
64208;SDS011;50527;52.414;13.226;2023-04-25T06:20:56;5.80;;;1.25;;
64208;SDS011;50527;52.414;13.226;2023-04-25T06:23:21;2.88;;;1.10;;
64208;SDS011;50527;52.414;13.226;2023-04-25T06:25:47;4.85;;;1.10;;
64208;SDS011;50527;52.414;13.226;2023-04-25T06:28:12;9.13;;;1.17;;
64208;SDS011;50527;52.414;13.226;2023-04-25T06:30:38;5.38;;;1.20;;
64208;SDS011;50527;52.414;13.226;2023-04-25T06:33:03;4.15;;;1.00;;
64208;SDS011;50527;52.414;13.226;2023-04-25T06:35:29;5.78;;;1.30;;
64208;SDS011;50527;52.414;13.226;2023-04-25T06:37:54;7.25;;;1.40;;
64208;SDS011;50527;52.414;13.226;2023-04-25T06:40:20;3.15;;;1.30;;
64208;SDS011;50527;52.414;13.226;2023-04-25T06:42:45;5.45;;;1.25;;
64208;SDS011;50527;52.414;13.226;2023-04-25T06:45:11;6.15;;;1.17;;
64208;SDS011;50527;52.414;13.226;2023-04-25T06:47:36;7.22;;;1.00;;
64208;SDS011;50527;52.414;13.226;2023-04-25T06:50:02;1.58;;;0.70;;
64208;SDS011;50527;52.414;13.226;2023-04-25T06:52:27;2.67;;;0.88;;
64208;SDS011;50527;52.414;13.226;2023-04-25T06:54:53;5.15;;;1.10;;
64208;SDS011;50527;52.414;13.226;2023-04-25T06:57:18;6.45;;;1.02;;
64208;SDS011;50527;52.414;13.226;2023-04-25T06:59:44;3.60;;;1.15;;
64208;SDS011;50527;52.414;13.226;2023-04-25T07:02:10;4.68;;;0.80;;
64208;SDS011;50527;52.414;13.226;2023-04-25T07:04:35;4.50;;;0.90;;
64208;SDS011;50527;52.414;13.226;2023-04-25T07:07:01;5.75;;;1.20;;
64208;SDS011;50527;52.414;13.226;2023-04-25T07:09:28;2.22;;;0.85;;
64208;SDS011;50527;52.414;13.226;2023-04-25T07:11:53;2.17;;;0.80;;
64208;SDS011;50527;52.414;13.226;2023-04-25T07:14:19;2.85;;;0.68;;
64208;SDS011;50527;52.414;13.226;2023-04-25T07:16:45;4.05;;;0.95;;
64208;SDS011;50527;52.414;13.226;2023-04-25T07:19:10;3.28;;;0.82;;
64208;SDS011;50527;52.414;13.226;2023-04-25T07:21:36;5.97;;;0.90;;
64208;SDS011;50527;52.414;13.226;2023-04-25T07:24:01;2.67;;;0.70;;
64208;SDS011;50527;52.414;13.226;2023-04-25T07:26:27;6.95;;;0.73;;
64208;SDS011;50527;52.414;13.226;2023-04-25T07:28:52;4.65;;;0.88;;
64208;SDS011;50527;52.414;13.226;2023-04-25T07:31:19;7.40;;;1.30;;
64208;SDS011;50527;52.414;13.226;2023-04-25T07:33:45;7.05;;;1.52;;
64208;SDS011;50527;52.414;13.226;2023-04-25T07:36:10;4.53;;;0.68;;
64208;SDS011;50527;52.414;13.226;2023-04-25T07:38:37;5.78;;;0.95;;
64208;SDS011;50527;52.414;13.226;2023-04-25T07:41:03;8.13;;;0.90;;
64208;SDS011;50527;52.414;13.226;2023-04-25T07:43:28;6.45;;;1.15;;
64208;SDS011;50527;52.414;13.226;2023-04-25T07:45:53;2.10;;;0.60;;
64208;SDS011;50527;52.414;13.226;2023-04-25T07:48:19;7.57;;;1.08;;
64208;SDS011;50527;52.414;13.226;2023-04-25T07:50:45;5.80;;;1.00;;
64208;SDS011;50527;52.414;13.226;2023-04-25T07:53:10;6.30;;;1.00;;
64208;SDS011;50527;52.414;13.226;2023-04-25T07:55:36;7.00;;;1.02;;
64208;SDS011;50527;52.414;13.226;2023-04-25T07:58:04;6.93;;;1.00;;
64208;SDS011;50527;52.414;13.226;2023-04-25T08:00:33;8.63;;;1.20;;
64208;SDS011;50527;52.414;13.226;2023-04-25T08:02:59;11.35;;;0.90;;
64208;SDS011;50527;52.414;13.226;2023-04-25T08:05:24;6.15;;;0.90;;
64208;SDS011;50527;52.414;13.226;2023-04-25T08:07:50;4.65;;;1.10;;
64208;SDS011;50527;52.414;13.226;2023-04-25T08:10:15;6.38;;;0.93;;
64208;SDS011;50527;52.414;13.226;2023-04-25T08:12:41;9.02;;;1.05;;
64208;SDS011;50527;52.414;13.226;2023-04-25T08:15:07;6.47;;;0.82;;
64208;SDS011;50527;52.414;13.226;2023-04-25T08:17:33;5.85;;;1.02;;
64208;SDS011;50527;52.414;13.226;2023-04-25T08:19:58;8.50;;;1.10;;
64208;SDS011;50527;52.414;13.226;2023-04-25T08:22:24;7.47;;;1.25;;
64208;SDS011;50527;52.414;13.226;2023-04-25T08:24:49;13.65;;;0.98;;
64208;SDS011;50527;52.414;13.226;2023-04-25T08:27:15;8.13;;;1.40;;
64208;SDS011;50527;52.414;13.226;2023-04-25T08:29:41;8.45;;;1.25;;
64208;SDS011;50527;52.414;13.226;2023-04-25T08:32:07;4.22;;;0.90;;
64208;SDS011;50527;52.414;13.226;2023-04-25T08:34:32;11.75;;;1.30;;
64208;SDS011;50527;52.414;13.226;2023-04-25T08:36:57;5.20;;;0.82;;
64208;SDS011;50527;52.414;13.226;2023-04-25T08:39:23;8.02;;;0.95;;
64208;SDS011;50527;52.414;13.226;2023-04-25T08:41:48;7.70;;;1.00;;
64208;SDS011;50527;52.414;13.226;2023-04-25T08:44:15;8.50;;;1.02;;
64208;SDS011;50527;52.414;13.226;2023-04-25T08:46:41;8.15;;;0.73;;
64208;SDS011;50527;52.414;13.226;2023-04-25T08:49:07;4.38;;;0.82;;
64208;SDS011;50527;52.414;13.226;2023-04-25T08:51:45;5.25;;;0.95;;
64208;SDS011;50527;52.414;13.226;2023-04-25T08:54:16;3.97;;;0.50;;
64208;SDS011;50527;52.414;13.226;2023-04-25T08:56:45;6.90;;;1.27;;
64208;SDS011;50527;52.414;13.226;2023-04-25T08:59:15;11.25;;;1.38;;
64208;SDS011;50527;52.414;13.226;2023-04-25T09:01:42;3.95;;;0.70;;
64208;SDS011;50527;52.414;13.226;2023-04-25T09:04:08;6.63;;;0.70;;
64208;SDS011;50527;52.414;13.226;2023-04-25T09:06:33;4.35;;;0.60;;
64208;SDS011;50527;52.414;13.226;2023-04-25T09:09:07;6.97;;;0.82;;
64208;SDS011;50527;52.414;13.226;2023-04-25T09:11:34;3.88;;;0.88;;
64208;SDS011;50527;52.414;13.226;2023-04-25T09:14:10;6.60;;;0.75;;
64208;SDS011;50527;52.414;13.226;2023-04-25T09:16:45;5.88;;;1.00;;
64208;SDS011;50527;52.414;13.226;2023-04-25T09:19:34;5.90;;;0.90;;
64208;SDS011;50527;52.414;13.226;2023-04-25T09:22:02;8.02;;;1.20;;
64208;SDS011;50527;52.414;13.226;2023-04-25T09:24:44;6.35;;;0.90;;
64208;SDS011;50527;52.414;13.226;2023-04-25T09:27:18;9.02;;;0.90;;
64208;SDS011;50527;52.414;13.226;2023-04-25T09:29:45;5.05;;;0.80;;
64208;SDS011;50527;52.414;13.226;2023-04-25T09:32:12;8.40;;;0.95;;
64208;SDS011;50527;52.414;13.226;2023-04-25T09:34:49;9.55;;;1.08;;
64208;SDS011;50527;52.414;13.226;2023-04-25T09:37:22;6.60;;;0.85;;
64208;SDS011;50527;52.414;13.226;2023-04-25T09:40:00;5.93;;;0.73;;
64208;SDS011;50527;52.414;13.226;2023-04-25T09:42:30;7.63;;;1.05;;
64208;SDS011;50527;52.414;13.226;2023-04-25T09:44:57;5.75;;;0.70;;
64208;SDS011;50527;52.414;13.226;2023-04-25T09:47:26;5.43;;;0.80;;
64208;SDS011;50527;52.414;13.226;2023-04-25T09:49:53;8.32;;;0.80;;
64208;SDS011;50527;52.414;13.226;2023-04-25T09:52:23;5.07;;;0.95;;
64208;SDS011;50527;52.414;13.226;2023-04-25T09:54:50;6.78;;;0.70;;
64208;SDS011;50527;52.414;13.226;2023-04-25T09:57:19;7.32;;;0.88;;
64208;SDS011;50527;52.414;13.226;2023-04-25T10:03:07;7.38;;;0.90;;
64208;SDS011;50527;52.414;13.226;2023-04-25T10:05:34;4.75;;;0.75;;
64208;SDS011;50527;52.414;13.226;2023-04-25T10:08:02;7.68;;;0.80;;
64208;SDS011;50527;52.414;13.226;2023-04-25T10:10:29;8.35;;;0.88;;
64208;SDS011;50527;52.414;13.226;2023-04-25T10:13:00;5.63;;;0.90;;
64208;SDS011;50527;52.414;13.226;2023-04-25T10:15:28;4.10;;;0.60;;
64208;SDS011;50527;52.414;13.226;2023-04-25T10:17:54;3.92;;;0.70;;
64208;SDS011;50527;52.414;13.226;2023-04-25T10:20:21;3.72;;;0.65;;
64208;SDS011;50527;52.414;13.226;2023-04-25T10:22:47;4.32;;;0.80;;
64208;SDS011;50527;52.414;13.226;2023-04-25T10:25:13;3.45;;;0.65;;
64208;SDS011;50527;52.414;13.226;2023-04-25T10:27:39;7.55;;;0.70;;
64208;SDS011;50527;52.414;13.226;2023-04-25T10:32:37;7.30;;;0.75;;
64208;SDS011;50527;52.414;13.226;2023-04-25T10:35:13;9.63;;;0.90;;
64208;SDS011;50527;52.414;13.226;2023-04-25T10:37:59;5.85;;;0.55;;
64208;SDS011;50527;52.414;13.226;2023-04-25T10:40:31;5.78;;;0.60;;
64208;SDS011;50527;52.414;13.226;2023-04-25T10:46:01;5.80;;;0.68;;
64208;SDS011;50527;52.414;13.226;2023-04-25T10:48:28;4.85;;;0.68;;
64208;SDS011;50527;52.414;13.226;2023-04-25T10:51:11;5.82;;;0.70;;
64208;SDS011;50527;52.414;13.226;2023-04-25T11:03:56;5.20;;;0.70;;
64208;SDS011;50527;52.414;13.226;2023-04-25T11:06:26;9.57;;;0.55;;
64208;SDS011;50527;52.414;13.226;2023-04-25T11:09:46;6.65;;;0.52;;
64208;SDS011;50527;52.414;13.226;2023-04-25T11:15:34;3.10;;;0.40;;
64208;SDS011;50527;52.414;13.226;2023-04-25T11:17:59;2.88;;;0.50;;
64208;SDS011;50527;52.414;13.226;2023-04-25T11:20:25;6.80;;;0.68;;
64208;SDS011;50527;52.414;13.226;2023-04-25T11:23:02;4.13;;;0.73;;
64208;SDS011;50527;52.414;13.226;2023-04-25T11:32:13;3.72;;;0.40;;
64208;SDS011;50527;52.414;13.226;2023-04-25T11:38:02;5.68;;;0.68;;
64208;SDS011;50527;52.414;13.226;2023-04-25T11:45:55;3.05;;;0.35;;
64208;SDS011;50527;52.414;13.226;2023-04-25T11:48:20;1.75;;;0.47;;
64208;SDS011;50527;52.414;13.226;2023-04-25T11:50:46;4.38;;;0.50;;
64208;SDS011;50527;52.414;13.226;2023-04-25T11:53:11;1.85;;;0.40;;
64208;SDS011;50527;52.414;13.226;2023-04-25T11:55:37;5.35;;;0.70;;
64208;SDS011;50527;52.414;13.226;2023-04-25T11:58:04;2.67;;;0.43;;
64208;SDS011;50527;52.414;13.226;2023-04-25T12:00:31;3.97;;;0.40;;
64208;SDS011;50527;52.414;13.226;2023-04-25T12:02:57;2.53;;;0.43;;
64208;SDS011;50527;52.414;13.226;2023-04-25T12:05:24;2.58;;;0.40;;
64208;SDS011;50527;52.414;13.226;2023-04-25T12:07:51;4.78;;;0.32;;
64208;SDS011;50527;52.414;13.226;2023-04-25T12:10:17;3.50;;;0.47;;
64208;SDS011;50527;52.414;13.226;2023-04-25T12:12:44;6.80;;;0.60;;
64208;SDS011;50527;52.414;13.226;2023-04-25T12:15:15;3.05;;;0.50;;
64208;SDS011;50527;52.414;13.226;2023-04-25T12:17:48;3.78;;;0.35;;
64208;SDS011;50527;52.414;13.226;2023-04-25T12:20:16;3.08;;;0.43;;
64208;SDS011;50527;52.414;13.226;2023-04-25T12:22:44;6.47;;;0.47;;
64208;SDS011;50527;52.414;13.226;2023-04-25T12:25:11;5.18;;;0.40;;
64208;SDS011;50527;52.414;13.226;2023-04-25T12:27:38;7.28;;;0.60;;
64208;SDS011;50527;52.414;13.226;2023-04-25T12:30:07;1.48;;;0.40;;
64208;SDS011;50527;52.414;13.226;2023-04-25T12:32:33;6.25;;;0.50;;
64208;SDS011;50527;52.414;13.226;2023-04-25T12:34:58;2.47;;;0.60;;
64208;SDS011;50527;52.414;13.226;2023-04-25T12:37:24;3.42;;;0.60;;
64208;SDS011;50527;52.414;13.226;2023-04-25T12:39:49;3.58;;;0.75;;
64208;SDS011;50527;52.414;13.226;2023-04-25T12:42:15;0.75;;;0.28;;
64208;SDS011;50527;52.414;13.226;2023-04-25T12:44:41;0.80;;;0.35;;
64208;SDS011;50527;52.414;13.226;2023-04-25T12:47:06;2.60;;;0.50;;
64208;SDS011;50527;52.414;13.226;2023-04-25T12:49:32;6.53;;;0.55;;
64208;SDS011;50527;52.414;13.226;2023-04-25T12:51:58;5.72;;;0.60;;
64208;SDS011;50527;52.414;13.226;2023-04-25T12:54:23;4.25;;;0.50;;
64208;SDS011;50527;52.414;13.226;2023-04-25T12:56:50;1.33;;;0.20;;
64208;SDS011;50527;52.414;13.226;2023-04-25T12:59:16;3.83;;;0.50;;
64208;SDS011;50527;52.414;13.226;2023-04-25T13:01:41;1.15;;;0.43;;
64208;SDS011;50527;52.414;13.226;2023-04-25T13:04:07;6.68;;;0.47;;
64208;SDS011;50527;52.414;13.226;2023-04-25T13:06:33;6.32;;;0.65;;
64208;SDS011;50527;52.414;13.226;2023-04-25T13:08:58;6.05;;;0.73;;
64208;SDS011;50527;52.414;13.226;2023-04-25T13:11:24;4.70;;;0.68;;
64208;SDS011;50527;52.414;13.226;2023-04-25T13:13:49;5.25;;;0.65;;
64208;SDS011;50527;52.414;13.226;2023-04-25T13:16:15;2.88;;;0.25;;
64208;SDS011;50527;52.414;13.226;2023-04-25T13:18:40;4.40;;;0.50;;
64208;SDS011;50527;52.414;13.226;2023-04-25T13:21:08;5.32;;;0.55;;
64208;SDS011;50527;52.414;13.226;2023-04-25T13:23:34;3.90;;;0.47;;
64208;SDS011;50527;52.414;13.226;2023-04-25T13:26:00;2.15;;;0.40;;
64208;SDS011;50527;52.414;13.226;2023-04-25T13:28:26;3.53;;;0.40;;
64208;SDS011;50527;52.414;13.226;2023-04-25T13:30:52;1.27;;;0.32;;
64208;SDS011;50527;52.414;13.226;2023-04-25T13:33:18;4.38;;;0.65;;
64208;SDS011;50527;52.414;13.226;2023-04-25T13:35:45;4.05;;;0.65;;
64208;SDS011;50527;52.414;13.226;2023-04-25T13:38:14;11.80;;;0.93;;
64208;SDS011;50527;52.414;13.226;2023-04-25T13:40:40;3.22;;;0.47;;
64208;SDS011;50527;52.414;13.226;2023-04-25T13:43:05;3.38;;;0.40;;
64208;SDS011;50527;52.414;13.226;2023-04-25T13:45:33;1.95;;;0.30;;
64208;SDS011;50527;52.414;13.226;2023-04-25T13:48:00;3.55;;;0.40;;
64208;SDS011;50527;52.414;13.226;2023-04-25T13:50:26;1.90;;;0.40;;
64208;SDS011;50527;52.414;13.226;2023-04-25T13:52:51;3.17;;;0.40;;
64208;SDS011;50527;52.414;13.226;2023-04-25T13:55:17;5.03;;;0.38;;
64208;SDS011;50527;52.414;13.226;2023-04-25T13:57:43;1.15;;;0.30;;
64208;SDS011;50527;52.414;13.226;2023-04-25T14:00:08;5.20;;;0.60;;
64208;SDS011;50527;52.414;13.226;2023-04-25T14:02:35;3.95;;;0.75;;
64208;SDS011;50527;52.414;13.226;2023-04-25T14:05:01;2.45;;;0.38;;
64208;SDS011;50527;52.414;13.226;2023-04-25T14:07:28;5.13;;;0.40;;
64208;SDS011;50527;52.414;13.226;2023-04-25T14:09:53;3.30;;;0.55;;
64208;SDS011;50527;52.414;13.226;2023-04-25T14:12:18;1.67;;;0.40;;
64208;SDS011;50527;52.414;13.226;2023-04-25T14:14:44;5.60;;;0.32;;
64208;SDS011;50527;52.414;13.226;2023-04-25T14:17:10;5.95;;;0.40;;
64208;SDS011;50527;52.414;13.226;2023-04-25T14:19:36;4.13;;;0.65;;
64208;SDS011;50527;52.414;13.226;2023-04-25T14:22:03;6.28;;;0.60;;
64208;SDS011;50527;52.414;13.226;2023-04-25T14:24:29;4.70;;;0.60;;
64208;SDS011;50527;52.414;13.226;2023-04-25T14:26:54;5.80;;;0.70;;
64208;SDS011;50527;52.414;13.226;2023-04-25T14:29:20;3.65;;;0.52;;
64208;SDS011;50527;52.414;13.226;2023-04-25T14:31:46;4.50;;;0.63;;
64208;SDS011;50527;52.414;13.226;2023-04-25T14:34:12;2.75;;;0.55;;
64208;SDS011;50527;52.414;13.226;2023-04-25T14:36:37;1.75;;;0.30;;
64208;SDS011;50527;52.414;13.226;2023-04-25T14:39:03;2.22;;;0.50;;
64208;SDS011;50527;52.414;13.226;2023-04-25T14:41:30;5.10;;;0.63;;
64208;SDS011;50527;52.414;13.226;2023-04-25T14:43:55;4.65;;;0.55;;
64208;SDS011;50527;52.414;13.226;2023-04-25T14:46:21;4.03;;;0.50;;
64208;SDS011;50527;52.414;13.226;2023-04-25T14:48:48;5.03;;;0.70;;
64208;SDS011;50527;52.414;13.226;2023-04-25T14:51:13;4.65;;;0.75;;
64208;SDS011;50527;52.414;13.226;2023-04-25T14:53:39;3.80;;;0.40;;
64208;SDS011;50527;52.414;13.226;2023-04-25T14:56:05;5.30;;;0.55;;
64208;SDS011;50527;52.414;13.226;2023-04-25T14:58:32;4.55;;;0.60;;
64208;SDS011;50527;52.414;13.226;2023-04-25T15:00:57;3.63;;;0.50;;
64208;SDS011;50527;52.414;13.226;2023-04-25T15:03:23;3.95;;;0.60;;
64208;SDS011;50527;52.414;13.226;2023-04-25T15:05:49;6.57;;;0.55;;
64208;SDS011;50527;52.414;13.226;2023-04-25T15:08:14;3.13;;;0.45;;